Aviation Digital Data Service (ADDS)

Output produced by METARs form (0135 UTC 23 November 2017)
found at http://www.aviationweather.gov/adds/metars/
 
TAF FNBG 222245Z 2300/2312 26005KT 8000 SCT020 
     TEMPO 2302/2306 VRB03KT FEW020 BKN040 
     BECMG 2308/2310 33010KT 9999 FEW018 FEW030CB
       
FNCA 222000Z 00000KT 9999 SCT020 BKN057 24/23 Q1010
TAF FNCA 222245Z 2300/2312 VRB03KT 8000 -DZ SCT014 FEW018TCU BKN040 
     PROB30 
     TEMPO 2306/2310 5000 +RA SCT007 FEW022CB OVC030 
     BECMG 2310/2312 27008KT 7000 -DZRA SCT018 FEW025CB BKN050
       
TAF FNDU 222245Z 2300/2312 VRB03KT 8000 FEW025 FEW030CB BKN040 
     PROB30 
     TEMPO 2305/2309 7000 -DZRA BKN030 FEW033CB 
     BECMG 2309/2312 5000 -TSRA FEW030CB OVC040
       
TAF FNHU 222245Z 2300/2312 VRB03KT 8000 FEW018 BKN040 
     BECMG 2309/2312 16010KT 6000 TSRA SCT020 FEW030CB
       
TAF FNKU 222245Z 2300/2312 VRB03KT 9000 FEW008 FEW025CB OVC050 
     PROB30 
     TEMPO 2308/2312 18005KT 7000 -RADZ SCT007 FEW023CB OVC030
       
FNLU 230100Z 18004KT 8000 FEW020 BKN070 25/22 Q1009 NOSIG
TAF FNLU 222245Z 2300/2406 18005KT 8000 SCT020 BKN050 
     PROB30 
     TEMPO 2300/2304 VRB03KT 6000 -DZ SCT018 BKN022 
     BECMG 2308/2310 22006KT 9000 SCT020 BKN040 
     TEMPO 2312/2316 28010KT 9999 FEW020 FEW025TCU SCT050 
     BECMG 2318/2320 22008KT 8000 -DZ SCT020 BKN040
       
TAF FNUE 222245Z 2300/2312 24004KT 7000 -RADZ FEW007 FEW030CB BKN040 
     BECMG 2304/2306 VRB03KT 6000 FEW025CB OVC030 
     PROB30 
     TEMPO 2308/2312 18006KT 5000 RA
       
TAF FNMA 222245Z 2300/2312 VRB03KT 8000 SCT010 BKN012 
     PROB30 
     TEMPO 2305/2309 5000 BR BKN010 OVC030 
     BECMG 2309/2312 27005KT 9000 FEW010CB BKN010 OVC040
       
TAF FNME 222245Z 2300/2312 VRB03KT 9999 SCT030 
     BECMG 2307/2310 10010KT SCT020 FEW030TCU SCT040
       
TAF FNMO 222245Z 2300/2312 29006KT 9000 NSC 
     TEMPO 2303/2307 VRB03KT 9999 FEW010 
     BECMG 2307/2309 35014KT CAVOK
       
TAF FNGI 222245Z 2300/2312 VRB03KT 9999 FEW015 SCT023 
     BECMG 2307/2310 15010KT FEW018 SCT025
       
TAF FNSA 222245Z 2300/2312 27004KT 7000 -RADZ FEW023CB OVC040 
     BECMG 2303/2306 VRB03KT 
     PROB30 
     TEMPO 2306/2312 09005KT 5000 -TSRA FEW020CB OVC030
       
TAF FNSO 222245Z 2300/2312 24004KT 8000 SCT015 FEW020TCU BKN030 
     PROB30 
     TEMPO 2306/2310 18006KT 4000 -TSRA FEW022CB OVC040 
     BECMG 2310/2312 24010KT 6000 -RADZ SCT008 FEW025CB BKN050